Time;durP1;ratioP1;P1;durP2;ratioP2;P2;SDS_P1;SDS_P2;PMS_P1;PMS_P2;Temp;Humidity;BMP_temperature;BMP_pressure;BME280_temperature;BME280_humidity;BME280_pressure;Samples;Min_cycle;Max_cycle;Signal;HPM_P1;HPM_P2
2021/03/09 00:00:36;;;;;;;29.20;12.87;;;-0.40;99.90;;;;;;5019693;28;20244;-86
2021/03/09 00:03:04;;;;;;;26.40;12.10;;;-1.40;99.90;;;;;;5053960;28;20181;-86
2021/03/09 00:05:29;;;;;;;31.67;12.67;;;-1.40;99.90;;;;;;5052865;28;20699;-86
2021/03/09 00:07:55;;;;;;;32.80;13.20;;;0.30;99.90;;;;;;5019822;28;20218;-86
2021/03/09 00:10:20;;;;;;;30.80;13.83;;;-1.50;99.90;;;;;;5019899;28;20186;-85
2021/03/09 00:12:46;;;;;;;26.27;12.43;;;-1.50;99.90;;;;;;5035760;28;20258;-85
2021/03/09 00:15:12;;;;;;;28.50;12.67;;;-1.50;99.90;;;;;;5019386;28;20190;-84
2021/03/09 00:17:39;;;;;;;26.50;12.30;;;-1.50;99.90;;;;;;5036085;28;20205;-83
2021/03/09 00:20:06;;;;;;;25.87;12.83;;;-1.50;99.90;;;;;;5053952;28;20180;-84
2021/03/09 00:22:31;;;;;;;24.73;11.57;;;-1.50;99.90;;;;;;5053891;28;20773;-84
2021/03/09 00:24:57;;;;;;;26.87;11.93;;;0.00;99.90;;;;;;5053568;28;20289;-82
2021/03/09 00:27:23;;;;;;;31.80;13.00;;;-1.50;99.90;;;;;;5003404;28;20196;-84
2021/03/09 00:29:48;;;;;;;26.30;12.87;;;-0.80;99.90;;;;;;5035687;28;20664;-84
2021/03/09 00:32:14;;;;;;;29.53;13.70;;;-1.60;99.90;;;;;;5053710;28;20191;-83
2021/03/09 00:34:40;;;;;;;24.27;11.30;;;-0.10;99.90;;;;;;5053795;28;20214;-83
2021/03/09 00:37:05;;;;;;;29.40;13.13;;;-1.60;99.90;;;;;;5035923;28;20192;-83
2021/03/09 00:39:32;;;;;;;29.60;13.77;;;-1.60;99.90;;;;;;5035893;28;20176;-84
2021/03/09 00:41:58;;;;;;;24.27;12.33;;;-1.70;99.90;;;;;;5035955;28;20186;-84
2021/03/09 00:44:23;;;;;;;26.90;13.60;;;-1.70;99.90;;;;;;5051614;28;20554;-84
2021/03/09 00:46:50;;;;;;;28.13;12.53;;;-0.90;99.90;;;;;;5035609;28;20214;-84
2021/03/09 00:49:16;;;;;;;26.33;13.23;;;-0.40;99.90;;;;;;5035377;28;20284;-84
2021/03/09 00:51:41;;;;;;;26.83;12.90;;;0.40;99.90;;;;;;5053444;28;20620;-84
2021/03/09 00:54:07;;;;;;;28.23;13.77;;;-0.70;99.90;;;;;;5034996;28;20651;-84
2021/03/09 00:56:33;;;;;;;31.83;16.10;;;-2.00;99.90;;;;;;5035671;28;20618;-84
2021/03/09 00:58:58;;;;;;;33.07;15.70;;;-1.10;99.90;;;;;;5053188;28;20224;-84
2021/03/09 01:01:24;;;;;;;29.40;13.77;;;-1.70;99.90;;;;;;5035307;28;20225;-86
2021/03/09 01:03:50;;;;;;;27.90;13.93;;;-1.20;99.90;;;;;;5035516;28;20310;-84
2021/03/09 01:06:15;;;;;;;32.13;15.10;;;-1.40;99.90;;;;;;5052903;28;20233;-84
2021/03/09 01:08:41;;;;;;;25.50;13.23;;;-2.10;99.90;;;;;;5018830;28;20683;-84
2021/03/09 01:11:07;;;;;;;27.40;14.83;;;-1.70;99.90;;;;;;5035258;28;20261;-83
2021/03/09 01:13:32;;;;;;;28.73;13.83;;;-1.30;99.90;;;;;;5052931;28;20184;-83
2021/03/09 01:15:58;;;;;;;27.93;14.17;;;-1.60;99.90;;;;;;5035031;28;20185;-83
2021/03/09 01:18:23;;;;;;;25.60;13.37;;;-0.80;99.90;;;;;;5052832;28;20182;-83
2021/03/09 01:20:49;;;;;;;28.33;14.37;;;-1.90;99.90;;;;;;5035310;28;20180;-83
2021/03/09 01:23:16;;;;;;;28.13;12.13;;;-2.20;99.90;;;;;;5034919;28;20548;-83
2021/03/09 01:25:42;;;;;;;31.97;14.80;;;-1.00;99.90;;;;;;5052991;28;20208;-84
2021/03/09 01:28:09;;;;;;;26.87;13.90;;;-1.60;99.90;;;;;;5034995;28;20254;-83
2021/03/09 01:30:35;;;;;;;29.10;13.90;;;-0.70;99.90;;;;;;5035100;28;20185;-84
2021/03/09 01:33:01;;;;;;;34.27;15.60;;;-2.20;99.90;;;;;;5052598;28;20584;-83
2021/03/09 01:35:26;;;;;;;34.20;14.60;;;-2.30;99.90;;;;;;5034790;28;20184;-83
2021/03/09 01:37:52;;;;;;;26.40;13.37;;;-2.30;99.90;;;;;;5052695;28;20187;-85
2021/03/09 01:40:19;;;;;;;33.47;15.10;;;-2.40;99.90;;;;;;5052652;28;20654;-84
2021/03/09 01:42:45;;;;;;;32.07;15.83;;;-1.70;99.90;;;;;;5035115;28;20193;-83
2021/03/09 01:45:11;;;;;;;38.27;16.63;;;-1.10;99.90;;;;;;5034477;28;20212;-84
2021/03/09 01:47:41;;;;;;;35.73;16.03;;;-2.40;99.90;;;;;;5034859;28;20716;-84
2021/03/09 01:50:08;;;;;;;40.70;16.13;;;-2.50;99.90;;;;;;5052595;28;20169;-82
2021/03/09 01:52:34;;;;;;;42.27;18.03;;;-2.50;99.90;;;;;;5052719;28;20184;-84
2021/03/09 01:55:00;;;;;;;40.67;17.27;;;-0.60;99.90;;;;;;5034805;28;20237;-84
2021/03/09 01:57:26;;;;;;;40.00;17.90;;;-2.40;99.90;;;;;;5052448;28;20234;-83
2021/03/09 01:59:54;;;;;;;35.80;15.50;;;-2.50;99.90;;;;;;5034292;28;20710;-83
2021/03/09 02:02:19;;;;;;;40.03;15.77;;;-2.60;99.90;;;;;;5034618;28;20180;-83
2021/03/09 02:04:45;;;;;;;37.37;16.63;;;-2.60;99.90;;;;;;5034553;28;20623;-83
2021/03/09 02:07:11;;;;;;;31.33;15.23;;;-2.60;99.90;;;;;;5034728;28;20192;-85
2021/03/09 02:09:37;;;;;;;32.27;15.77;;;-1.80;99.90;;;;;;5052674;28;20181;-84
2021/03/09 02:12:28;;;;;;;37.33;15.73;;;-1.60;99.90;;;;;;5052644;28;20211;-85
2021/03/09 02:15:00;;;;;;;34.27;14.33;;;-2.80;99.90;;;;;;5052714;28;20648;-86
2021/03/09 02:17:43;;;;;;;34.00;13.77;;;-2.80;99.90;;;;;;5052373;28;20174;-85
2021/03/09 02:20:17;;;;;;;29.37;14.50;;;-2.80;99.90;;;;;;5052427;28;20170;-84
2021/03/09 02:23:07;;;;;;;28.17;14.40;;;-2.90;99.90;;;;;;5052523;28;20183;-84
2021/03/09 02:26:02;;;;;;;33.20;14.40;;;-2.90;99.90;;;;;;5052130;28;20194;-83
2021/03/09 02:29:04;;;;;;;34.67;15.87;;;-2.90;99.90;;;;;;5022472;28;20239;-83
2021/03/09 02:31:31;;;;;;;34.80;14.27;;;-2.90;99.90;;;;;;5037795;28;20179;-84
2021/03/09 02:34:01;;;;;;;39.50;16.27;;;-2.60;99.90;;;;;;5056139;28;20187;-84
2021/03/09 02:36:29;;;;;;;39.00;15.83;;;-3.00;99.90;;;;;;5037817;28;20206;-83
2021/03/09 02:39:04;;;;;;;48.47;15.87;;;-2.70;99.90;;;;;;5055923;28;20270;-84
2021/03/09 02:41:30;;;;;;;83.33;24.23;;;-2.90;99.90;;;;;;5055400;28;20156;-84
2021/03/09 02:43:58;;;;;;;115.30;31.07;;;-2.10;99.90;;;;;;5055771;28;20310;-84
2021/03/09 02:46:27;;;;;;;181.53;41.13;;;-3.10;99.90;;;;;;5037883;28;20176;-84
2021/03/09 02:48:54;;;;;;;150.37;40.67;;;-3.10;99.90;;;;;;5055653;28;20643;-84
2021/03/09 02:51:26;;;;;;;193.60;47.10;;;-3.10;99.90;;;;;;5055394;28;20172;-84
2021/03/09 02:53:55;;;;;;;160.87;41.90;;;-2.10;99.90;;;;;;5055667;28;20189;-84
2021/03/09 02:56:22;;;;;;;96.57;28.13;;;-3.10;99.90;;;;;;5055160;28;20648;-85
2021/03/09 02:58:50;;;;;;;110.43;32.57;;;-3.20;99.90;;;;;;5037252;28;20176;-84
2021/03/09 03:01:17;;;;;;;59.47;22.40;;;-2.20;99.90;;;;;;5054927;28;20217;-85
2021/03/09 03:03:45;;;;;;;44.30;16.63;;;-3.20;99.90;;;;;;5055252;28;20196;-85
2021/03/09 03:06:12;;;;;;;41.13;16.67;;;-2.10;99.90;;;;;;5037378;28;20610;-85
2021/03/09 03:08:42;;;;;;;40.10;15.80;;;-1.80;99.90;;;;;;5055017;28;20651;-85
2021/03/09 03:11:09;;;;;;;28.90;13.50;;;-3.20;99.90;;;;;;5055039;28;20281;-85
2021/03/09 03:13:35;;;;;;;32.70;15.63;;;-3.30;99.90;;;;;;5055249;28;20221;-85
2021/03/09 03:16:03;;;;;;;34.27;14.47;;;-3.30;99.90;;;;;;5055241;28;20183;-85
2021/03/09 03:18:36;;;;;;;31.67;13.97;;;-3.30;99.90;;;;;;5054617;28;20237;-85
2021/03/09 03:21:03;;;;;;;28.60;12.83;;;-3.20;99.90;;;;;;5055227;28;20615;-85
2021/03/09 03:23:30;;;;;;;28.77;13.97;;;-3.40;99.90;;;;;;5036935;28;20194;-85
2021/03/09 03:25:57;;;;;;;28.53;12.83;;;-3.40;99.90;;;;;;5037094;28;20676;-85
2021/03/09 03:28:23;;;;;;;26.80;13.27;;;-2.10;99.90;;;;;;5054643;28;20177;-84
2021/03/09 03:30:52;;;;;;;27.17;11.73;;;-3.10;99.90;;;;;;5036782;28;20195;-85
2021/03/09 03:33:18;;;;;;;30.43;12.80;;;-3.40;99.90;;;;;;5054779;28;20212;-83
2021/03/09 03:35:45;;;;;;;31.13;13.47;;;-3.40;99.90;;;;;;5054651;28;20657;-84
2021/03/09 03:38:14;;;;;;;27.30;12.83;;;-3.00;99.90;;;;;;5054733;28;20180;-83
2021/03/09 03:40:40;;;;;;;30.50;12.87;;;-3.50;99.90;;;;;;5038485;28;20241;-83
2021/03/09 03:43:06;;;;;;;28.17;12.90;;;-3.50;99.90;;;;;;5037368;28;20187;-84
2021/03/09 03:45:32;;;;;;;29.07;13.53;;;-2.70;99.90;;;;;;5054595;28;20546;-84
2021/03/09 03:47:59;;;;;;;36.20;14.63;;;-3.50;99.90;;;;;;5054432;28;20633;-84
2021/03/09 03:50:26;;;;;;;36.90;15.23;;;-3.50;99.90;;;;;;5054224;28;20183;-85
2021/03/09 03:52:51;;;;;;;36.43;15.30;;;-3.60;99.90;;;;;;5054411;28;20180;-84
2021/03/09 03:55:23;;;;;;;39.17;16.83;;;-3.50;99.90;;;;;;5036382;28;20249;-84
2021/03/09 03:57:50;;;;;;;34.47;13.83;;;-3.60;99.90;;;;;;5054547;28;20176;-84
2021/03/09 04:00:18;;;;;;;36.90;15.00;;;-2.70;99.90;;;;;;5036336;28;20708;-84
2021/03/09 04:02:49;;;;;;;37.50;14.43;;;-3.60;99.90;;;;;;5054080;28;20292;-85
2021/03/09 04:05:16;;;;;;;30.73;12.93;;;-3.60;99.90;;;;;;5053853;28;20304;-86
2021/03/09 04:07:43;;;;;;;43.57;15.40;;;-2.00;99.90;;;;;;5036171;28;20193;-83
2021/03/09 04:10:09;;;;;;;47.67;16.23;;;-3.30;99.90;;;;;;5054396;28;20180;-85
2021/03/09 04:12:36;;;;;;;50.83;15.40;;;-3.60;99.90;;;;;;5053712;28;20180;-84
2021/03/09 04:15:03;;;;;;;46.20;15.60;;;-3.50;99.90;;;;;;5036376;28;20187;-85
2021/03/09 04:17:29;;;;;;;30.40;12.83;;;-3.60;99.90;;;;;;5019736;28;20603;-85
2021/03/09 04:19:57;;;;;;;35.97;14.73;;;-3.50;99.90;;;;;;5035940;28;20207;-86
2021/03/09 04:22:25;;;;;;;31.87;15.17;;;-3.60;99.90;;;;;;5053903;28;20183;-85
2021/03/09 04:24:51;;;;;;;26.53;11.47;;;-3.60;99.90;;;;;;5036153;28;20200;-86
2021/03/09 04:27:23;;;;;;;28.33;13.20;;;-3.60;99.90;;;;;;5053612;28;20181;-84
2021/03/09 04:29:55;;;;;;;21.80;10.90;;;-2.10;99.90;;;;;;5053773;28;20625;-83
2021/03/09 04:32:23;;;;;;;25.33;11.77;;;-3.60;99.90;;;;;;5053531;28;20621;-84
2021/03/09 04:34:49;;;;;;;22.80;11.60;;;-3.60;99.90;;;;;;5036000;28;20184;-84
2021/03/09 04:37:16;;;;;;;31.27;14.43;;;-1.80;99.90;;;;;;5028002;28;20184;-84
2021/03/09 04:39:42;;;;;;;30.07;16.00;;;-3.60;99.90;;;;;;5031560;28;20192;-84
2021/03/09 04:42:09;;;;;;;32.90;16.93;;;-2.10;99.90;;;;;;5030102;28;20729;-84
2021/03/09 04:44:35;;;;;;;29.63;15.33;;;-3.60;99.90;;;;;;5029822;28;20247;-84
2021/03/09 04:47:03;;;;;;;31.10;15.03;;;-2.40;99.90;;;;;;5013227;28;20189;-84
2021/03/09 04:49:31;;;;;;;31.03;14.87;;;-3.60;99.90;;;;;;5013362;28;20235;-83
2021/03/09 04:51:58;;;;;;;34.67;13.90;;;-3.60;99.90;;;;;;5029825;28;20192;-84
2021/03/09 04:54:25;;;;;;;27.43;11.87;;;-2.50;99.90;;;;;;5029540;28;20223;-84
2021/03/09 04:56:51;;;;;;;30.83;13.20;;;-3.20;99.90;;;;;;5030402;28;20210;-83
2021/03/09 04:59:17;;;;;;;30.57;12.33;;;-1.70;99.90;;;;;;5030720;28;20269;-83
2021/03/09 05:01:43;;;;;;;30.50;13.87;;;-2.60;99.90;;;;;;5031142;28;20246;-83
2021/03/09 05:04:09;;;;;;;33.00;12.80;;;-3.50;99.90;;;;;;5028186;28;20613;-83
2021/03/09 05:06:34;;;;;;;28.97;12.27;;;-3.50;99.90;;;;;;5029573;28;20321;-84
2021/03/09 05:09:00;;;;;;;27.13;12.23;;;-3.40;99.90;;;;;;5013121;28;20718;-83
2021/03/09 05:11:28;;;;;;;31.50;14.30;;;-3.40;99.90;;;;;;5029817;28;20649;-83
2021/03/09 05:13:58;;;;;;;32.50;12.20;;;-2.60;99.90;;;;;;5029826;28;20188;-83
2021/03/09 05:16:25;;;;;;;33.83;12.43;;;-3.40;99.90;;;;;;5030911;28;20199;-83
2021/03/09 05:18:50;;;;;;;38.27;15.60;;;-2.60;99.90;;;;;;5029730;28;20275;-84
2021/03/09 05:21:16;;;;;;;43.50;15.93;;;-2.10;99.90;;;;;;5031120;28;20199;-85
2021/03/09 05:23:42;;;;;;;28.60;12.87;;;-2.20;99.90;;;;;;5031053;28;20589;-84
2021/03/09 05:26:08;;;;;;;39.77;15.27;;;-1.90;99.90;;;;;;5030885;28;20212;-86
2021/03/09 05:28:34;;;;;;;32.63;14.13;;;-3.20;99.90;;;;;;5013284;28;20642;-85
2021/03/09 05:31:01;;;;;;;28.87;12.77;;;-2.80;99.90;;;;;;5031137;28;20594;-85
2021/03/09 05:33:26;;;;;;;26.73;12.13;;;-2.60;99.90;;;;;;5031363;28;20184;-85
2021/03/09 05:35:52;;;;;;;35.03;12.90;;;-1.90;99.90;;;;;;5030222;28;20539;-85
2021/03/09 05:38:18;;;;;;;26.40;13.40;;;-3.00;99.90;;;;;;5013154;28;20561;-85
2021/03/09 05:40:44;;;;;;;32.53;12.80;;;-2.00;99.90;;;;;;5030670;28;20196;-84
2021/03/09 05:43:10;;;;;;;29.87;12.43;;;-1.70;99.90;;;;;;5029734;28;20220;-86
2021/03/09 05:45:37;;;;;;;47.73;20.30;;;-2.80;99.90;;;;;;5028502;28;20592;-85
2021/03/09 05:48:03;;;;;;;43.00;19.13;;;-2.60;99.90;;;;;;5029144;28;20262;-84
2021/03/09 05:50:29;;;;;;;43.83;18.50;;;-2.70;99.90;;;;;;5013026;28;20690;-85
2021/03/09 05:52:55;;;;;;;46.13;17.17;;;-2.60;99.90;;;;;;5030055;28;20323;-84
2021/03/09 05:55:21;;;;;;;31.83;13.33;;;-1.20;99.90;;;;;;5012415;28;20183;-83
2021/03/09 05:57:48;;;;;;;32.23;14.00;;;-1.90;99.90;;;;;;5029818;28;20195;-83
2021/03/09 06:00:14;;;;;;;25.30;13.17;;;-0.80;99.90;;;;;;5028548;28;20763;-82
2021/03/09 06:02:41;;;;;;;24.17;11.63;;;-2.40;99.90;;;;;;5029658;28;20213;-83
2021/03/09 06:05:09;;;;;;;24.53;10.50;;;-1.20;99.90;;;;;;5033369;28;20295;-82
2021/03/09 06:07:38;;;;;;;27.73;13.50;;;-2.30;99.90;;;;;;5031922;28;20188;-84
2021/03/09 06:10:05;;;;;;;25.60;12.60;;;-0.40;99.90;;;;;;5032367;28;20211;-85
2021/03/09 06:12:31;;;;;;;23.37;11.80;;;-2.40;99.90;;;;;;5032161;28;20200;-83
2021/03/09 06:15:02;;;;;;;24.77;11.27;;;-2.40;99.90;;;;;;5030814;28;20596;-83
2021/03/09 06:17:35;;;;;;;26.17;12.57;;;-0.80;99.90;;;;;;5029941;28;20187;-84
2021/03/09 06:20:01;;;;;;;27.13;11.87;;;-2.20;99.90;;;;;;5031683;28;20641;-84
2021/03/09 06:22:43;;;;;;;31.87;12.80;;;-0.40;99.90;;;;;;5030955;28;20194;-85
2021/03/09 06:25:14;;;;;;;27.80;12.87;;;-2.10;99.90;;;;;;5033114;28;20210;-84
2021/03/09 06:27:40;;;;;;;33.30;13.53;;;-2.10;99.90;;;;;;5034242;28;20168;-85
2021/03/09 06:30:25;;;;;;;26.07;12.30;;;-0.50;99.90;;;;;;5016755;28;20189;-85
2021/03/09 06:32:50;;;;;;;28.97;13.33;;;-2.20;99.90;;;;;;5034218;28;20219;-84
2021/03/09 06:35:34;;;;;;;23.30;10.70;;;-1.20;99.90;;;;;;5034337;28;20260;-83
2021/03/09 06:38:23;;;;;;;27.27;13.93;;;-1.00;99.90;;;;;;5033632;28;20172;-88
2021/03/09 06:41:18;;;;;;;29.33;12.80;;;-2.20;99.90;;;;;;5034080;28;20175;-86
2021/03/09 06:43:58;;;;;;;30.40;14.50;;;-2.20;99.90;;;;;;5034273;28;20176;-86
2021/03/09 06:46:24;;;;;;;25.10;12.00;;;-2.20;99.90;;;;;;5038749;28;20677;-87
2021/03/09 06:48:55;;;;;;;23.30;11.33;;;-1.50;99.90;;;;;;5033647;28;20186;-85
2021/03/09 06:51:28;;;;;;;21.93;10.80;;;-2.30;99.90;;;;;;5033967;28;20176;-85
2021/03/09 06:54:27;;;;;;;23.80;11.77;;;-2.20;99.90;;;;;;5017211;28;20174;-85
2021/03/09 06:56:52;;;;;;;21.73;11.13;;;-2.20;99.90;;;;;;4986026;28;20227;-86
2021/03/09 06:59:31;;;;;;;28.50;11.90;;;-2.10;99.90;;;;;;5031111;28;20260;-89
2021/03/09 07:02:11;;;;;;;29.43;12.00;;;-2.00;99.90;;;;;;5036143;28;20492;-86
2021/03/09 07:04:38;;;;;;;18.63;9.67;;;-1.90;99.90;;;;;;5045474;28;20199;-85
2021/03/09 07:07:04;;;;;;;20.57;9.67;;;-1.10;99.90;;;;;;5025641;28;20192;-85
2021/03/09 07:09:31;;;;;;;23.83;10.90;;;-1.80;99.90;;;;;;5044116;28;20267;-85
2021/03/09 07:11:58;;;;;;;21.00;9.80;;;-0.50;99.90;;;;;;5035761;28;20538;-84
2021/03/09 07:14:24;;;;;;;22.03;9.43;;;-1.90;99.90;;;;;;5036354;28;20176;-86
2021/03/09 07:16:51;;;;;;;27.43;10.33;;;-1.90;99.90;;;;;;5036407;28;20183;-84
2021/03/09 07:19:26;;;;;;;161.30;36.97;;;-1.30;99.90;;;;;;5052425;28;20183;-86
2021/03/09 07:21:52;;;;;;;16.93;9.00;;;-1.60;99.90;;;;;;5021692;28;20182;-87
2021/03/09 07:24:21;;;;;;;23.10;9.00;;;-1.10;99.90;;;;;;5033992;28;20180;-86
2021/03/09 07:26:52;;;;;;;31.07;11.73;;;-0.50;99.90;;;;;;5016271;28;20184;-86
2021/03/09 07:29:21;;;;;;;38.30;11.43;;;-1.60;99.90;;;;;;5034239;28;20244;-87
2021/03/09 07:31:49;;;;;;;18.60;8.80;;;-1.40;99.90;;;;;;5016012;28;20215;-87
2021/03/09 07:34:17;;;;;;;77.03;20.97;;;0.40;99.90;;;;;;5034057;28;20179;-86
2021/03/09 07:36:43;;;;;;;40.50;14.10;;;-1.10;99.90;;;;;;5016383;28;20184;-86
2021/03/09 07:39:09;;;;;;;18.43;7.57;;;0.30;99.90;;;;;;5033913;28;20183;-86
2021/03/09 07:41:36;;;;;;;52.03;16.73;;;-1.00;99.90;;;;;;5016290;28;20648;-87
2021/03/09 07:44:02;;;;;;;28.43;11.17;;;-0.90;99.90;;;;;;5018794;28;20250;-86
2021/03/09 07:46:28;;;;;;;11.90;5.97;;;1.00;99.90;;;;;;5023055;28;20215;-86
2021/03/09 07:48:54;;;;;;;14.60;5.83;;;-0.90;99.90;;;;;;5015762;28;20194;-86
2021/03/09 07:51:22;;;;;;;11.47;5.40;;;-0.90;99.90;;;;;;5009550;28;20204;-86
2021/03/09 07:54:09;;;;;;;15.53;6.57;;;-0.90;99.90;;;;;;5041805;28;20183;-84
2021/03/09 07:56:35;;;;;;;34.03;10.83;;;-0.80;99.90;;;;;;5022173;28;20649;-86
2021/03/09 07:59:07;;;;;;;13.53;6.23;;;-0.60;99.90;;;;;;5047018;28;20255;-87
2021/03/09 08:01:53;;;;;;;12.60;5.90;;;-0.20;98.00;;;;;;5012113;28;20173;-90
2021/03/09 08:04:19;;;;;;;21.73;8.67;;;-0.10;99.50;;;;;;5053219;28;20208;-86
2021/03/09 08:06:45;;;;;;;17.20;7.07;;;-0.50;99.50;;;;;;5020912;28;20664;-86
2021/03/09 08:09:34;;;;;;;33.83;11.60;;;0.30;99.00;;;;;;5007352;28;20188;-84
2021/03/09 08:12:00;;;;;;;22.37;8.00;;;-0.10;99.40;;;;;;5052999;28;20171;-84
2021/03/09 08:14:27;;;;;;;6.17;3.60;;;1.50;94.10;;;;;;5053311;28;20188;-85
2021/03/09 08:16:53;;;;;;;8.77;4.53;;;0.20;86.10;;;;;;5042104;28;20194;-85
2021/03/09 08:19:25;;;;;;;12.73;6.27;;;1.10;89.40;;;;;;5033192;28;20239;-83
2021/03/09 08:21:57;;;;;;;5.47;3.37;;;0.10;86.30;;;;;;5053101;28;20202;-84
2021/03/09 08:24:45;;;;;;;7.27;4.27;;;-0.10;80.70;;;;;;5053252;28;20175;-85
2021/03/09 08:27:30;;;;;;;52.23;15.57;;;-0.20;82.70;;;;;;5034009;28;20194;-84
2021/03/09 08:30:17;;;;;;;27.97;10.13;;;-0.10;86.20;;;;;;5019061;28;20203;-84
2021/03/09 08:32:43;;;;;;;10.47;4.87;;;0.30;88.00;;;;;;5050348;28;20267;-84
2021/03/09 08:35:11;;;;;;;18.70;6.83;;;-0.10;84.80;;;;;;5037529;28;20279;-84
2021/03/09 08:37:37;;;;;;;8.27;4.33;;;1.20;85.00;;;;;;5037704;28;20656;-84
2021/03/09 08:40:16;;;;;;;12.00;4.63;;;-0.10;83.30;;;;;;5020034;28;20199;-84
2021/03/09 08:43:00;;;;;;;13.80;5.60;;;0.00;82.20;;;;;;5037168;28;20175;-85
2021/03/09 08:45:36;;;;;;;12.37;5.53;;;0.90;82.30;;;;;;5015511;28;20204;-85
2021/03/09 08:48:03;;;;;;;13.03;5.70;;;0.80;82.60;;;;;;5052268;28;20175;-85
2021/03/09 08:50:40;;;;;;;10.30;4.17;;;0.30;82.00;;;;;;5053737;28;20172;-86
2021/03/09 08:53:06;;;;;;;8.93;4.67;;;1.10;77.70;;;;;;5018886;28;20191;-86
2021/03/09 08:55:32;;;;;;;7.40;4.47;;;0.30;75.90;;;;;;5051968;28;20275;-86
2021/03/09 08:58:06;;;;;;;10.00;4.10;;;0.30;74.70;;;;;;5034969;28;20260;-86
2021/03/09 09:00:31;;;;;;;9.07;4.23;;;0.50;73.70;;;;;;5050744;28;20227;-84
2021/03/09 09:02:57;;;;;;;7.33;3.63;;;1.90;73.00;;;;;;5050791;28;20179;-87
2021/03/09 09:05:29;;;;;;;6.17;3.53;;;-0.10;71.10;;;;;;5050992;28;20204;-85
2021/03/09 09:07:54;;;;;;;8.17;4.20;;;-0.40;70.90;;;;;;5051077;28;20601;-84
2021/03/09 09:10:22;;;;;;;9.70;4.27;;;-0.20;72.70;;;;;;5051209;28;20176;-84
2021/03/09 09:12:50;;;;;;;6.57;3.97;;;-0.50;74.20;;;;;;5033617;28;20188;-84
2021/03/09 09:15:32;;;;;;;7.57;4.23;;;0.60;73.60;;;;;;5035655;28;20186;-85
2021/03/09 09:18:03;;;;;;;8.07;2.80;;;0.30;70.30;;;;;;5052888;28;20179;-85
2021/03/09 09:20:34;;;;;;;11.07;4.20;;;-0.50;69.20;;;;;;5035356;28;20167;-85
2021/03/09 09:23:12;;;;;;;17.33;7.13;;;1.40;71.70;;;;;;5052934;28;20180;-85
2021/03/09 09:25:44;;;;;;;8.60;4.00;;;-0.40;69.40;;;;;;5052791;28;20190;-85
2021/03/09 09:28:41;;;;;;;7.43;3.70;;;0.50;69.00;;;;;;5052856;28;20196;-85
2021/03/09 09:31:22;;;;;;;12.33;5.10;;;0.20;69.10;;;;;;5052883;28;20171;-85
2021/03/09 09:33:49;;;;;;;7.87;3.90;;;0.60;70.00;;;;;;5053604;28;20208;-85
2021/03/09 09:36:15;;;;;;;6.33;3.70;;;1.70;69.40;;;;;;5052409;28;20263;-85
2021/03/09 09:38:40;;;;;;;10.40;3.47;;;1.50;65.20;;;;;;5055772;28;20183;-85
2021/03/09 09:41:06;;;;;;;8.53;4.43;;;0.90;65.20;;;;;;5037127;28;20188;-85
2021/03/09 09:43:35;;;;;;;9.00;3.30;;;1.50;68.90;;;;;;5036826;28;20182;-85
2021/03/09 09:46:15;;;;;;;12.07;4.53;;;1.20;67.40;;;;;;5036721;28;20686;-84
2021/03/09 09:48:41;;;;;;;10.77;4.50;;;0.90;66.70;;;;;;5015107;28;20719;-85
2021/03/09 09:51:19;;;;;;;9.17;4.27;;;0.60;68.20;;;;;;5014804;28;20184;-85
2021/03/09 09:53:47;;;;;;;12.70;4.13;;;0.20;66.70;;;;;;5014733;28;20176;-86
2021/03/09 09:56:21;;;;;;;8.10;4.20;;;1.00;68.80;;;;;;5014645;28;20177;-86
2021/03/09 09:58:48;;;;;;;12.00;4.93;;;1.70;69.40;;;;;;5015791;28;20176;-85
2021/03/09 10:01:22;;;;;;;8.83;4.93;;;0.70;67.80;;;;;;5016627;28;20193;-86
2021/03/09 10:03:55;;;;;;;9.97;5.13;;;0.00;69.70;;;;;;5015401;28;20171;-86
2021/03/09 10:06:27;;;;;;;10.77;4.70;;;0.20;70.30;;;;;;5018545;28;20654;-87
2021/03/09 10:08:53;;;;;;;10.00;4.87;;;0.20;70.50;;;;;;4999055;28;20197;-89
2021/03/09 10:11:19;;;;;;;9.20;5.20;;;2.10;73.70;;;;;;5014996;28;20182;-90
2021/03/09 10:13:45;;;;;;;7.77;4.93;;;2.10;71.20;;;;;;5015056;28;20181;-87
2021/03/09 10:16:12;;;;;;;8.20;4.40;;;0.80;70.30;;;;;;5014955;28;20663;-87
2021/03/09 10:18:38;;;;;;;12.17;4.40;;;0.80;69.20;;;;;;4998739;28;20640;-89
2021/03/09 10:21:11;;;;;;;8.10;4.07;;;0.90;62.90;;;;;;4998270;28;20185;-88
2021/03/09 10:23:56;;;;;;;9.37;4.23;;;0.80;62.70;;;;;;5016294;28;20183;-88
2021/03/09 10:26:25;;;;;;;8.17;3.83;;;0.80;62.20;;;;;;4998250;28;20208;-87
2021/03/09 10:29:02;;;;;;;6.77;3.53;;;0.90;60.50;;;;;;4998592;28;20188;-88
2021/03/09 10:31:42;;;;;;;9.57;5.00;;;2.20;60.70;;;;;;5016272;28;20171;-86
2021/03/09 10:34:08;;;;;;;6.60;4.20;;;0.70;60.10;;;;;;5015899;28;20204;-88
2021/03/09 10:37:07;;;;;;;8.07;4.50;;;0.80;60.60;;;;;;5016088;28;20656;-88
2021/03/09 10:39:35;;;;;;;6.83;4.07;;;0.70;61.20;;;;;;4982568;28;20200;-88
2021/03/09 10:42:39;;;;;;;7.77;4.57;;;1.30;63.40;;;;;;5008752;28;20184;-87
2021/03/09 10:45:20;;;;;;;11.87;5.23;;;0.80;62.70;;;;;;5055411;28;20199;-85
2021/03/09 10:47:59;;;;;;;7.80;4.33;;;0.70;64.80;;;;;;5037597;28;20188;-86
2021/03/09 10:50:27;;;;;;;8.93;4.70;;;1.90;66.40;;;;;;5054266;28;20257;-88
2021/03/09 10:52:53;;;;;;;7.30;4.00;;;0.70;66.70;;;;;;5037580;28;20174;-85
2021/03/09 10:55:19;;;;;;;7.63;4.53;;;1.30;67.10;;;;;;5054405;28;20217;-88
2021/03/09 10:57:45;;;;;;;8.17;4.23;;;0.80;65.90;;;;;;5054646;28;20228;-86
2021/03/09 11:00:14;;;;;;;10.23;4.57;;;0.80;65.60;;;;;;5036329;28;20232;-85
2021/03/09 11:02:41;;;;;;;12.40;6.60;;;0.80;64.90;;;;;;5036827;28;20229;-86
2021/03/09 11:05:07;;;;;;;11.33;5.97;;;1.80;64.70;;;;;;5027701;28;20242;-84
2021/03/09 11:07:33;;;;;;;9.43;4.93;;;0.90;62.20;;;;;;5016820;28;20216;-85
2021/03/09 11:09:59;;;;;;;6.67;4.03;;;0.90;62.50;;;;;;5034323;28;20184;-86
2021/03/09 11:12:24;;;;;;;8.03;4.27;;;0.80;60.60;;;;;;5016586;28;20184;-87
2021/03/09 11:14:50;;;;;;;8.57;4.73;;;0.60;60.90;;;;;;5021904;28;20191;-88
2021/03/09 11:17:16;;;;;;;7.93;4.77;;;0.70;63.40;;;;;;5008817;28;20181;-88
2021/03/09 11:19:42;;;;;;;5.63;3.37;;;0.80;61.20;;;;;;5009864;28;20180;-86
2021/03/09 11:22:07;;;;;;;7.37;4.30;;;0.60;61.00;;;;;;5016453;28;20189;-87
2021/03/09 11:24:33;;;;;;;5.53;3.40;;;0.60;62.20;;;;;;5004492;28;20180;-85
2021/03/09 11:27:00;;;;;;;7.27;3.70;;;2.70;61.90;;;;;;5006805;28;20887;-85
2021/03/09 11:29:27;;;;;;;6.03;3.37;;;0.90;60.00;;;;;;5036089;28;20207;-86
2021/03/09 11:31:53;;;;;;;7.00;3.80;;;2.10;60.30;;;;;;5036624;28;20179;-86
2021/03/09 11:34:19;;;;;;;43.13;16.23;;;0.90;59.50;;;;;;5037521;28;20176;-88
2021/03/09 11:36:44;;;;;;;188.07;45.53;;;0.90;61.00;;;;;;5036653;28;20179;-88
2021/03/09 11:39:10;;;;;;;93.70;29.67;;;2.40;61.60;;;;;;5036669;28;20172;-84
2021/03/09 11:41:36;;;;;;;41.13;18.13;;;1.00;59.60;;;;;;5036958;28;20263;-86
2021/03/09 11:44:01;;;;;;;5.33;3.57;;;0.90;60.20;;;;;;5048762;28;20538;-87
2021/03/09 11:46:27;;;;;;;8.47;5.60;;;0.60;58.80;;;;;;5027032;28;20590;-88
2021/03/09 11:48:53;;;;;;;8.27;4.57;;;1.50;61.60;;;;;;5025683;28;20273;-86
2021/03/09 11:51:19;;;;;;;8.33;4.90;;;1.30;59.80;;;;;;5042372;28;20177;-88
2021/03/09 11:53:44;;;;;;;8.13;4.53;;;1.10;59.10;;;;;;5025043;28;20485;-86
2021/03/09 11:56:10;;;;;;;10.00;3.90;;;0.70;59.00;;;;;;5026952;28;20662;-85
2021/03/09 11:58:38;;;;;;;7.90;4.40;;;0.70;59.40;;;;;;5008745;28;20215;-85
2021/03/09 12:01:04;;;;;;;17.57;6.37;;;0.60;59.90;;;;;;5024245;28;20262;-85
2021/03/09 12:03:30;;;;;;;31.07;9.03;;;0.50;61.90;;;;;;5029408;28;20643;-86
2021/03/09 12:05:55;;;;;;;11.73;5.80;;;1.60;63.90;;;;;;5043565;28;20297;-85
2021/03/09 12:08:21;;;;;;;10.33;5.03;;;1.40;63.90;;;;;;5008250;28;20197;-86
2021/03/09 12:10:47;;;;;;;9.73;5.50;;;0.70;63.10;;;;;;5024653;28;20187;-85
2021/03/09 12:13:12;;;;;;;33.73;16.07;;;0.80;62.20;;;;;;5044098;28;20176;-85
2021/03/09 12:15:38;;;;;;;51.87;12.87;;;0.90;61.40;;;;;;5025694;28;20634;-86
2021/03/09 12:18:04;;;;;;;20.30;8.10;;;1.10;61.90;;;;;;5045298;28;20185;-86
2021/03/09 12:20:30;;;;;;;15.07;6.37;;;1.40;65.20;;;;;;5041809;28;20180;-86
2021/03/09 12:22:55;;;;;;;16.20;6.73;;;2.00;62.00;;;;;;5044591;28;20183;-85
2021/03/09 12:25:22;;;;;;;19.10;7.80;;;2.90;58.70;;;;;;5043854;28;20207;-86
2021/03/09 12:27:48;;;;;;;14.57;7.93;;;2.10;59.20;;;;;;5007869;28;20204;-85
2021/03/09 12:30:15;;;;;;;17.37;8.13;;;2.40;58.60;;;;;;5009424;28;20206;-85
2021/03/09 12:32:40;;;;;;;13.17;5.73;;;2.30;59.00;;;;;;5010027;28;20191;-86
2021/03/09 12:35:08;;;;;;;25.23;9.70;;;2.30;58.50;;;;;;5026520;28;20184;-85
2021/03/09 12:37:33;;;;;;;32.87;13.00;;;2.20;59.10;;;;;;5008381;28;20188;-88
2021/03/09 12:39:59;;;;;;;14.40;6.37;;;2.60;58.80;;;;;;5027544;28;20205;-86
2021/03/09 12:42:25;;;;;;;13.07;6.10;;;2.20;58.20;;;;;;5043660;28;20512;-88
2021/03/09 12:44:51;;;;;;;47.03;16.90;;;1.80;58.70;;;;;;5007772;28;20304;-86